sensor_id;sensor_type;location;lat;lon;timestamp;P1;durP1;ratioP1;P2;durP2;ratioP2
16809;SDS011;51744;50.872;4.730;2023-04-03T00:02:00;8.77;;;7.95;;
16809;SDS011;51744;50.872;4.730;2023-04-03T00:04:49;8.30;;;7.45;;
16809;SDS011;51744;50.872;4.730;2023-04-03T00:07:37;9.18;;;7.60;;
16809;SDS011;51744;50.872;4.730;2023-04-03T00:10:25;9.60;;;8.60;;
16809;SDS011;51744;50.872;4.730;2023-04-03T00:13:13;8.75;;;7.90;;
16809;SDS011;51744;50.872;4.730;2023-04-03T00:16:03;10.50;;;7.65;;
16809;SDS011;51744;50.872;4.730;2023-04-03T00:18:50;9.85;;;8.00;;
16809;SDS011;51744;50.872;4.730;2023-04-03T00:21:38;9.20;;;8.32;;
16809;SDS011;51744;50.872;4.730;2023-04-03T00:24:26;10.35;;;8.00;;
16809;SDS011;51744;50.872;4.730;2023-04-03T00:27:13;8.57;;;7.68;;
16809;SDS011;51744;50.872;4.730;2023-04-03T00:30:01;8.35;;;7.55;;
16809;SDS011;51744;50.872;4.730;2023-04-03T00:32:50;10.07;;;7.90;;
16809;SDS011;51744;50.872;4.730;2023-04-03T00:35:38;8.48;;;7.57;;
16809;SDS011;51744;50.872;4.730;2023-04-03T00:38:26;9.05;;;7.70;;
16809;SDS011;51744;50.872;4.730;2023-04-03T00:41:13;8.60;;;7.80;;
16809;SDS011;51744;50.872;4.730;2023-04-03T00:44:00;9.75;;;8.20;;
16809;SDS011;51744;50.872;4.730;2023-04-03T00:47:02;8.98;;;8.07;;
16809;SDS011;51744;50.872;4.730;2023-04-03T00:49:53;8.75;;;7.85;;
16809;SDS011;51744;50.872;4.730;2023-04-03T00:52:40;9.18;;;8.20;;
16809;SDS011;51744;50.872;4.730;2023-04-03T00:55:27;9.18;;;8.27;;
16809;SDS011;51744;50.872;4.730;2023-04-03T00:58:16;9.27;;;8.13;;
16809;SDS011;51744;50.872;4.730;2023-04-03T01:01:07;8.88;;;7.97;;
16809;SDS011;51744;50.872;4.730;2023-04-03T01:03:58;9.83;;;7.83;;
16809;SDS011;51744;50.872;4.730;2023-04-03T01:06:49;8.77;;;7.60;;
16809;SDS011;51744;50.872;4.730;2023-04-03T01:09:37;8.80;;;7.82;;
16809;SDS011;51744;50.872;4.730;2023-04-03T01:12:27;8.45;;;7.65;;
16809;SDS011;51744;50.872;4.730;2023-04-03T01:15:17;9.30;;;7.63;;
16809;SDS011;51744;50.872;4.730;2023-04-03T01:18:09;8.50;;;7.57;;
16809;SDS011;51744;50.872;4.730;2023-04-03T01:24:20;8.20;;;7.40;;
16809;SDS011;51744;50.872;4.730;2023-04-03T01:27:14;8.93;;;8.03;;
16809;SDS011;51744;50.872;4.730;2023-04-03T01:30:01;8.85;;;7.95;;
16809;SDS011;51744;50.872;4.730;2023-04-03T01:32:51;8.90;;;8.00;;
16809;SDS011;51744;50.872;4.730;2023-04-03T01:35:38;8.70;;;7.88;;
16809;SDS011;51744;50.872;4.730;2023-04-03T01:38:25;10.05;;;7.90;;
16809;SDS011;51744;50.872;4.730;2023-04-03T01:41:13;9.00;;;8.10;;
16809;SDS011;51744;50.872;4.730;2023-04-03T01:44:03;9.87;;;8.57;;
16809;SDS011;51744;50.872;4.730;2023-04-03T01:46:52;9.20;;;8.25;;
16809;SDS011;51744;50.872;4.730;2023-04-03T01:49:42;9.20;;;7.82;;
16809;SDS011;51744;50.872;4.730;2023-04-03T01:52:30;8.63;;;7.82;;
16809;SDS011;51744;50.872;4.730;2023-04-03T01:55:17;9.18;;;8.15;;
16809;SDS011;51744;50.872;4.730;2023-04-03T01:58:05;9.40;;;7.87;;
16809;SDS011;51744;50.872;4.730;2023-04-03T02:00:52;7.97;;;7.28;;
16809;SDS011;51744;50.872;4.730;2023-04-03T02:03:39;9.30;;;7.60;;
16809;SDS011;51744;50.872;4.730;2023-04-03T02:06:28;8.73;;;7.70;;
16809;SDS011;51744;50.872;4.730;2023-04-03T02:09:15;9.18;;;8.00;;
16809;SDS011;51744;50.872;4.730;2023-04-03T02:12:02;9.50;;;8.32;;
16809;SDS011;51744;50.872;4.730;2023-04-03T02:14:50;8.88;;;7.97;;
16809;SDS011;51744;50.872;4.730;2023-04-03T02:17:37;8.98;;;8.18;;
16809;SDS011;51744;50.872;4.730;2023-04-03T02:20:25;9.55;;;8.55;;
16809;SDS011;51744;50.872;4.730;2023-04-03T02:23:14;9.15;;;8.25;;
16809;SDS011;51744;50.872;4.730;2023-04-03T02:26:02;9.25;;;8.32;;
16809;SDS011;51744;50.872;4.730;2023-04-03T02:28:54;10.85;;;8.57;;
16809;SDS011;51744;50.872;4.730;2023-04-03T02:31:41;9.15;;;7.93;;
16809;SDS011;51744;50.872;4.730;2023-04-03T02:34:29;9.50;;;8.25;;
16809;SDS011;51744;50.872;4.730;2023-04-03T02:37:18;9.77;;;8.68;;
16809;SDS011;51744;50.872;4.730;2023-04-03T02:40:08;9.68;;;8.68;;
16809;SDS011;51744;50.872;4.730;2023-04-03T02:42:56;9.57;;;8.65;;
16809;SDS011;51744;50.872;4.730;2023-04-03T02:45:44;9.20;;;8.32;;
16809;SDS011;51744;50.872;4.730;2023-04-03T02:48:31;9.68;;;8.68;;
16809;SDS011;51744;50.872;4.730;2023-04-03T02:51:19;10.52;;;9.45;;
16809;SDS011;51744;50.872;4.730;2023-04-03T02:54:07;10.23;;;9.23;;
16809;SDS011;51744;50.872;4.730;2023-04-03T02:56:59;10.20;;;9.13;;
16809;SDS011;51744;50.872;4.730;2023-04-03T02:59:46;10.57;;;9.57;;
16809;SDS011;51744;50.872;4.730;2023-04-03T03:02:33;10.43;;;9.38;;
16809;SDS011;51744;50.872;4.730;2023-04-03T03:05:21;10.43;;;9.38;;
16809;SDS011;51744;50.872;4.730;2023-04-03T03:08:08;9.65;;;8.68;;
16809;SDS011;51744;50.872;4.730;2023-04-03T03:10:56;9.90;;;8.90;;
16809;SDS011;51744;50.872;4.730;2023-04-03T03:13:45;10.50;;;9.45;;
16809;SDS011;51744;50.872;4.730;2023-04-03T03:16:33;9.93;;;9.02;;
16809;SDS011;51744;50.872;4.730;2023-04-03T03:19:20;10.27;;;9.27;;
16809;SDS011;51744;50.872;4.730;2023-04-03T03:22:07;10.85;;;9.85;;
16809;SDS011;51744;50.872;4.730;2023-04-03T03:24:56;10.70;;;9.70;;
16809;SDS011;51744;50.872;4.730;2023-04-03T03:27:43;10.35;;;9.45;;
16809;SDS011;51744;50.872;4.730;2023-04-03T03:30:33;10.82;;;9.82;;
16809;SDS011;51744;50.872;4.730;2023-04-03T03:33:21;11.07;;;9.98;;
16809;SDS011;51744;50.872;4.730;2023-04-03T03:36:08;10.82;;;9.73;;
16809;SDS011;51744;50.872;4.730;2023-04-03T03:38:55;10.63;;;9.52;;
16809;SDS011;51744;50.872;4.730;2023-04-03T03:41:43;10.90;;;9.90;;
16809;SDS011;51744;50.872;4.730;2023-04-03T03:44:30;10.40;;;9.30;;
16809;SDS011;51744;50.872;4.730;2023-04-03T03:47:19;10.85;;;9.77;;
16809;SDS011;51744;50.872;4.730;2023-04-03T03:50:08;10.70;;;9.60;;
16809;SDS011;51744;50.872;4.730;2023-04-03T03:52:56;10.45;;;9.32;;
16809;SDS011;51744;50.872;4.730;2023-04-03T03:55:44;10.57;;;9.55;;
16809;SDS011;51744;50.872;4.730;2023-04-03T03:58:31;10.60;;;9.50;;
16809;SDS011;51744;50.872;4.730;2023-04-03T04:01:19;10.52;;;9.52;;
16809;SDS011;51744;50.872;4.730;2023-04-03T04:04:08;11.20;;;10.10;;
16809;SDS011;51744;50.872;4.730;2023-04-03T04:06:56;10.57;;;9.57;;
16809;SDS011;51744;50.872;4.730;2023-04-03T04:09:43;11.10;;;10.00;;
16809;SDS011;51744;50.872;4.730;2023-04-03T04:12:31;11.50;;;10.40;;
16809;SDS011;51744;50.872;4.730;2023-04-03T04:15:20;11.90;;;10.70;;
16809;SDS011;51744;50.872;4.730;2023-04-03T04:18:08;11.15;;;9.75;;
16809;SDS011;51744;50.872;4.730;2023-04-03T04:21:00;11.48;;;10.30;;
16809;SDS011;51744;50.872;4.730;2023-04-03T04:23:48;11.32;;;10.27;;
16809;SDS011;51744;50.872;4.730;2023-04-03T04:26:36;11.73;;;10.53;;
16809;SDS011;51744;50.872;4.730;2023-04-03T04:29:24;11.77;;;10.57;;
16809;SDS011;51744;50.872;4.730;2023-04-03T04:32:13;11.68;;;10.52;;
16809;SDS011;51744;50.872;4.730;2023-04-03T04:35:00;11.77;;;10.68;;
16809;SDS011;51744;50.872;4.730;2023-04-03T04:37:51;11.90;;;10.77;;
16809;SDS011;51744;50.872;4.730;2023-04-03T04:40:38;12.32;;;11.20;;
16809;SDS011;51744;50.872;4.730;2023-04-03T04:43:27;12.40;;;11.15;;
16809;SDS011;51744;50.872;4.730;2023-04-03T04:46:14;13.65;;;12.25;;
16809;SDS011;51744;50.872;4.730;2023-04-03T04:49:07;13.13;;;11.77;;
16809;SDS011;51744;50.872;4.730;2023-04-03T04:51:54;13.07;;;11.77;;
16809;SDS011;51744;50.872;4.730;2023-04-03T04:54:47;13.40;;;12.20;;
16809;SDS011;51744;50.872;4.730;2023-04-03T04:57:34;14.07;;;12.68;;
16809;SDS011;51744;50.872;4.730;2023-04-03T05:00:23;14.00;;;12.60;;
16809;SDS011;51744;50.872;4.730;2023-04-03T05:03:11;13.23;;;11.88;;
16809;SDS011;51744;50.872;4.730;2023-04-03T05:05:59;13.60;;;12.17;;
16809;SDS011;51744;50.872;4.730;2023-04-03T05:08:48;13.50;;;12.20;;
16809;SDS011;51744;50.872;4.730;2023-04-03T05:11:37;13.70;;;12.32;;
16809;SDS011;51744;50.872;4.730;2023-04-03T05:14:26;13.80;;;12.13;;
16809;SDS011;51744;50.872;4.730;2023-04-03T05:17:18;14.90;;;13.50;;
16809;SDS011;51744;50.872;4.730;2023-04-03T05:20:10;14.88;;;13.48;;
16809;SDS011;51744;50.872;4.730;2023-04-03T05:22:59;15.98;;;14.32;;
16809;SDS011;51744;50.872;4.730;2023-04-03T05:25:48;14.48;;;13.15;;
16809;SDS011;51744;50.872;4.730;2023-04-03T05:28:37;16.40;;;14.80;;
16809;SDS011;51744;50.872;4.730;2023-04-03T05:31:26;16.38;;;14.70;;
16809;SDS011;51744;50.872;4.730;2023-04-03T05:34:15;16.55;;;14.95;;
16809;SDS011;51744;50.872;4.730;2023-04-03T05:37:05;16.10;;;14.70;;
16809;SDS011;51744;50.872;4.730;2023-04-03T05:39:52;16.15;;;14.65;;
16809;SDS011;51744;50.872;4.730;2023-04-03T05:42:40;17.00;;;15.40;;
16809;SDS011;51744;50.872;4.730;2023-04-03T05:45:29;16.73;;;15.05;;
16809;SDS011;51744;50.872;4.730;2023-04-03T05:48:17;16.63;;;14.93;;
16809;SDS011;51744;50.872;4.730;2023-04-03T05:51:05;16.95;;;15.10;;
16809;SDS011;51744;50.872;4.730;2023-04-03T05:53:55;16.35;;;14.85;;
16809;SDS011;51744;50.872;4.730;2023-04-03T05:56:48;16.98;;;15.38;;
16809;SDS011;51744;50.872;4.730;2023-04-03T05:59:36;17.00;;;15.43;;
16809;SDS011;51744;50.872;4.730;2023-04-03T06:02:26;16.67;;;15.13;;
16809;SDS011;51744;50.872;4.730;2023-04-03T06:05:14;17.42;;;15.82;;
16809;SDS011;51744;50.872;4.730;2023-04-03T06:08:04;16.58;;;15.02;;
16809;SDS011;51744;50.872;4.730;2023-04-03T06:10:51;17.43;;;15.70;;
16809;SDS011;51744;50.872;4.730;2023-04-03T06:13:38;17.02;;;15.48;;
16809;SDS011;51744;50.872;4.730;2023-04-03T06:16:26;17.40;;;15.90;;
16809;SDS011;51744;50.872;4.730;2023-04-03T06:19:17;17.30;;;15.50;;
16809;SDS011;51744;50.872;4.730;2023-04-03T06:22:08;17.77;;;16.08;;
16809;SDS011;51744;50.872;4.730;2023-04-03T06:24:56;17.80;;;16.10;;
16809;SDS011;51744;50.872;4.730;2023-04-03T06:27:44;17.60;;;15.90;;
16809;SDS011;51744;50.872;4.730;2023-04-03T06:30:32;17.77;;;16.13;;
16809;SDS011;51744;50.872;4.730;2023-04-03T06:33:21;18.00;;;16.13;;
16809;SDS011;51744;50.872;4.730;2023-04-03T06:36:10;17.40;;;15.90;;
16809;SDS011;51744;50.872;4.730;2023-04-03T06:38:59;18.38;;;16.45;;
16809;SDS011;51744;50.872;4.730;2023-04-03T06:41:46;17.33;;;15.67;;
16809;SDS011;51744;50.872;4.730;2023-04-03T06:44:34;17.27;;;15.55;;
16809;SDS011;51744;50.872;4.730;2023-04-03T06:47:22;17.75;;;16.13;;
16809;SDS011;51744;50.872;4.730;2023-04-03T06:50:10;17.85;;;16.13;;
16809;SDS011;51744;50.872;4.730;2023-04-03T06:53:00;16.88;;;15.07;;
16809;SDS011;51744;50.872;4.730;2023-04-03T06:55:49;16.65;;;15.15;;
16809;SDS011;51744;50.872;4.730;2023-04-03T06:58:37;17.00;;;15.40;;
16809;SDS011;51744;50.872;4.730;2023-04-03T07:01:25;16.73;;;15.02;;
16809;SDS011;51744;50.872;4.730;2023-04-03T07:04:14;16.33;;;14.77;;
16809;SDS011;51744;50.872;4.730;2023-04-03T07:07:02;16.40;;;14.75;;
16809;SDS011;51744;50.872;4.730;2023-04-03T07:09:51;16.45;;;14.75;;
16809;SDS011;51744;50.872;4.730;2023-04-03T07:12:38;15.45;;;14.02;;
16809;SDS011;51744;50.872;4.730;2023-04-03T07:15:26;14.70;;;12.50;;
16809;SDS011;51744;50.872;4.730;2023-04-03T07:18:16;13.88;;;12.27;;
16809;SDS011;51744;50.872;4.730;2023-04-03T07:21:04;13.73;;;12.25;;
16809;SDS011;51744;50.872;4.730;2023-04-03T07:23:54;14.13;;;12.65;;
16809;SDS011;51744;50.872;4.730;2023-04-03T07:26:44;13.60;;;12.27;;
16809;SDS011;51744;50.872;4.730;2023-04-03T07:29:32;12.13;;;10.85;;
16809;SDS011;51744;50.872;4.730;2023-04-03T07:32:20;11.05;;;9.88;;
16809;SDS011;51744;50.872;4.730;2023-04-03T07:35:07;11.13;;;10.03;;
16809;SDS011;51744;50.872;4.730;2023-04-03T07:37:55;11.82;;;10.60;;
16809;SDS011;51744;50.872;4.730;2023-04-03T07:40:45;10.73;;;9.60;;
16809;SDS011;51744;50.872;4.730;2023-04-03T07:43:35;10.20;;;9.23;;
16809;SDS011;51744;50.872;4.730;2023-04-03T07:46:23;12.73;;;9.25;;
16809;SDS011;51744;50.872;4.730;2023-04-03T07:49:11;10.30;;;8.65;;
16809;SDS011;51744;50.872;4.730;2023-04-03T07:51:59;8.93;;;8.02;;
16809;SDS011;51744;50.872;4.730;2023-04-03T07:54:46;9.73;;;8.43;;
16809;SDS011;51744;50.872;4.730;2023-04-03T07:57:34;8.85;;;7.95;;
16809;SDS011;51744;50.872;4.730;2023-04-03T08:00:23;9.10;;;8.10;;
16809;SDS011;51744;50.872;4.730;2023-04-03T08:03:11;9.70;;;8.27;;
16809;SDS011;51744;50.872;4.730;2023-04-03T08:06:01;10.43;;;7.72;;
16809;SDS011;51744;50.872;4.730;2023-04-03T08:08:52;8.68;;;7.80;;
16809;SDS011;51744;50.872;4.730;2023-04-03T08:11:40;7.95;;;7.15;;
16809;SDS011;51744;50.872;4.730;2023-04-03T08:14:29;9.57;;;7.28;;
16809;SDS011;51744;50.872;4.730;2023-04-03T08:17:21;8.60;;;7.57;;
16809;SDS011;51744;50.872;4.730;2023-04-03T08:20:09;8.65;;;7.15;;
16809;SDS011;51744;50.872;4.730;2023-04-03T08:22:57;11.23;;;7.50;;
16809;SDS011;51744;50.872;4.730;2023-04-03T08:25:46;8.20;;;6.43;;
16809;SDS011;51744;50.872;4.730;2023-04-03T08:28:33;9.10;;;6.70;;
16809;SDS011;51744;50.872;4.730;2023-04-03T08:31:20;7.43;;;6.30;;
16809;SDS011;51744;50.872;4.730;2023-04-03T08:34:10;7.88;;;6.30;;
16809;SDS011;51744;50.872;4.730;2023-04-03T08:36:59;6.72;;;6.03;;
16809;SDS011;51744;50.872;4.730;2023-04-03T08:39:46;6.72;;;5.88;;
16809;SDS011;51744;50.872;4.730;2023-04-03T08:42:40;7.10;;;5.53;;
16809;SDS011;51744;50.872;4.730;2023-04-03T08:45:37;8.55;;;5.78;;
16809;SDS011;51744;50.872;4.730;2023-04-03T08:48:32;7.60;;;5.60;;
16809;SDS011;51744;50.872;4.730;2023-04-03T08:51:23;5.75;;;4.50;;
16809;SDS011;51744;50.872;4.730;2023-04-03T08:54:14;6.87;;;4.77;;
16809;SDS011;51744;50.872;4.730;2023-04-03T08:57:09;8.10;;;5.05;;
16809;SDS011;51744;50.872;4.730;2023-04-03T09:00:00;6.90;;;4.50;;
16809;SDS011;51744;50.872;4.730;2023-04-03T09:02:54;4.68;;;3.70;;
16809;SDS011;51744;50.872;4.730;2023-04-03T09:05:45;6.30;;;3.97;;
16809;SDS011;51744;50.872;4.730;2023-04-03T09:08:40;5.07;;;3.80;;
16809;SDS011;51744;50.872;4.730;2023-04-03T09:11:35;5.85;;;4.00;;
16809;SDS011;51744;50.872;4.730;2023-04-03T09:14:30;7.57;;;4.10;;
16809;SDS011;51744;50.872;4.730;2023-04-03T09:17:26;6.38;;;3.90;;
16809;SDS011;51744;50.872;4.730;2023-04-03T09:20:24;5.45;;;4.05;;
16809;SDS011;51744;50.872;4.730;2023-04-03T09:23:22;5.50;;;3.80;;
16809;SDS011;51744;50.872;4.730;2023-04-03T09:26:17;6.72;;;3.70;;
16809;SDS011;51744;50.872;4.730;2023-04-03T09:29:08;6.40;;;3.50;;
16809;SDS011;51744;50.872;4.730;2023-04-03T09:32:01;5.47;;;3.33;;
16809;SDS011;51744;50.872;4.730;2023-04-03T09:34:57;4.85;;;3.47;;
16809;SDS011;51744;50.872;4.730;2023-04-03T09:38:15;6.67;;;3.87;;
16809;SDS011;51744;50.872;4.730;2023-04-03T09:41:05;5.05;;;3.75;;
16809;SDS011;51744;50.872;4.730;2023-04-03T09:44:01;7.88;;;4.00;;
16809;SDS011;51744;50.872;4.730;2023-04-03T09:46:50;4.93;;;3.70;;
16809;SDS011;51744;50.872;4.730;2023-04-03T09:49:38;5.50;;;3.80;;
16809;SDS011;51744;50.872;4.730;2023-04-03T09:52:26;6.05;;;3.83;;
16809;SDS011;51744;50.872;4.730;2023-04-03T09:55:14;7.05;;;4.10;;
16809;SDS011;51744;50.872;4.730;2023-04-03T09:58:04;6.05;;;3.90;;
16809;SDS011;51744;50.872;4.730;2023-04-03T10:01:29;5.72;;;3.60;;
16809;SDS011;51744;50.872;4.730;2023-04-03T10:04:18;7.78;;;3.97;;
16809;SDS011;51744;50.872;4.730;2023-04-03T10:10:18;6.33;;;3.77;;
16809;SDS011;51744;50.872;4.730;2023-04-03T10:13:10;6.00;;;3.92;;
16809;SDS011;51744;50.872;4.730;2023-04-03T10:16:07;6.18;;;4.10;;
16809;SDS011;51744;50.872;4.730;2023-04-03T10:19:05;7.10;;;3.83;;
16809;SDS011;51744;50.872;4.730;2023-04-03T10:22:12;6.28;;;3.67;;
16809;SDS011;51744;50.872;4.730;2023-04-03T10:25:09;5.30;;;3.58;;
16809;SDS011;51744;50.872;4.730;2023-04-03T10:28:02;5.88;;;3.40;;
16809;SDS011;51744;50.872;4.730;2023-04-03T10:30:55;5.80;;;3.30;;
16809;SDS011;51744;50.872;4.730;2023-04-03T10:33:53;4.55;;;3.30;;
16809;SDS011;51744;50.872;4.730;2023-04-03T10:36:53;5.75;;;3.25;;
16809;SDS011;51744;50.872;4.730;2023-04-03T10:39:50;5.03;;;2.60;;
16809;SDS011;51744;50.872;4.730;2023-04-03T10:42:42;4.13;;;2.67;;
16809;SDS011;51744;50.872;4.730;2023-04-03T10:45:44;4.75;;;2.60;;
16809;SDS011;51744;50.872;4.730;2023-04-03T10:48:40;3.55;;;2.67;;
16809;SDS011;51744;50.872;4.730;2023-04-03T10:51:50;3.88;;;2.72;;
16809;SDS011;51744;50.872;4.730;2023-04-03T10:54:47;4.45;;;2.70;;
16809;SDS011;51744;50.872;4.730;2023-04-03T10:57:41;4.40;;;2.57;;
16809;SDS011;51744;50.872;4.730;2023-04-03T11:00:30;3.47;;;2.38;;
16809;SDS011;51744;50.872;4.730;2023-04-03T11:03:27;4.15;;;2.45;;
16809;SDS011;51744;50.872;4.730;2023-04-03T11:06:20;5.22;;;2.45;;
16809;SDS011;51744;50.872;4.730;2023-04-03T11:09:15;4.27;;;2.63;;
16809;SDS011;51744;50.872;4.730;2023-04-03T11:12:09;4.65;;;2.70;;
16809;SDS011;51744;50.872;4.730;2023-04-03T11:15:01;4.90;;;2.70;;
16809;SDS011;51744;50.872;4.730;2023-04-03T11:17:51;4.68;;;2.63;;
16809;SDS011;51744;50.872;4.730;2023-04-03T11:20:47;4.47;;;2.55;;
16809;SDS011;51744;50.872;4.730;2023-04-03T11:23:42;3.20;;;2.13;;
16809;SDS011;51744;50.872;4.730;2023-04-03T11:26:36;4.22;;;2.20;;
16809;SDS011;51744;50.872;4.730;2023-04-03T11:29:28;3.63;;;2.22;;
16809;SDS011;51744;50.872;4.730;2023-04-03T11:32:28;3.13;;;2.00;;
16809;SDS011;51744;50.872;4.730;2023-04-03T11:35:24;3.53;;;2.08;;
16809;SDS011;51744;50.872;4.730;2023-04-03T11:38:15;3.17;;;2.25;;
16809;SDS011;51744;50.872;4.730;2023-04-03T11:41:08;4.50;;;2.30;;
16809;SDS011;51744;50.872;4.730;2023-04-03T11:44:01;4.83;;;2.57;;
16809;SDS011;51744;50.872;4.730;2023-04-03T11:46:52;3.75;;;2.50;;
16809;SDS011;51744;50.872;4.730;2023-04-03T11:49:57;4.90;;;2.40;;
16809;SDS011;51744;50.872;4.730;2023-04-03T11:52:56;3.40;;;2.42;;
16809;SDS011;51744;50.872;4.730;2023-04-03T11:55:52;3.58;;;2.40;;
16809;SDS011;51744;50.872;4.730;2023-04-03T11:58:43;3.55;;;2.22;;
16809;SDS011;51744;50.872;4.730;2023-04-03T12:05:27;3.72;;;2.17;;
16809;SDS011;51744;50.872;4.730;2023-04-03T12:08:23;3.05;;;2.00;;
16809;SDS011;51744;50.872;4.730;2023-04-03T12:11:19;4.17;;;2.20;;
16809;SDS011;51744;50.872;4.730;2023-04-03T12:14:13;4.90;;;2.17;;
16809;SDS011;51744;50.872;4.730;2023-04-03T12:17:12;3.77;;;2.10;;
16809;SDS011;51744;50.872;4.730;2023-04-03T12:23:34;2.95;;;2.10;;
16809;SDS011;51744;50.872;4.730;2023-04-03T12:26:25;3.60;;;2.00;;
16809;SDS011;51744;50.872;4.730;2023-04-03T12:29:27;3.85;;;2.00;;
16809;SDS011;51744;50.872;4.730;2023-04-03T12:32:32;2.95;;;1.90;;
16809;SDS011;51744;50.872;4.730;2023-04-03T12:35:31;2.45;;;1.60;;
16809;SDS011;51744;50.872;4.730;2023-04-03T12:38:37;2.70;;;1.58;;
16809;SDS011;51744;50.872;4.730;2023-04-03T12:41:43;3.58;;;1.70;;
16809;SDS011;51744;50.872;4.730;2023-04-03T12:44:40;3.33;;;1.80;;
16809;SDS011;51744;50.872;4.730;2023-04-03T12:47:38;2.10;;;1.60;;
16809;SDS011;51744;50.872;4.730;2023-04-03T12:50:30;3.58;;;1.63;;
16809;SDS011;51744;50.872;4.730;2023-04-03T12:53:20;3.80;;;2.10;;
16809;SDS011;51744;50.872;4.730;2023-04-03T12:56:21;3.67;;;2.20;;
16809;SDS011;51744;50.872;4.730;2023-04-03T12:59:14;4.70;;;2.10;;
16809;SDS011;51744;50.872;4.730;2023-04-03T13:02:03;3.63;;;2.13;;
16809;SDS011;51744;50.872;4.730;2023-04-03T13:05:08;3.78;;;2.20;;
16809;SDS011;51744;50.872;4.730;2023-04-03T13:08:02;3.53;;;2.30;;
16809;SDS011;51744;50.872;4.730;2023-04-03T13:10:53;5.22;;;2.45;;
16809;SDS011;51744;50.872;4.730;2023-04-03T13:13:53;3.00;;;2.30;;
16809;SDS011;51744;50.872;4.730;2023-04-03T13:16:42;3.50;;;2.20;;
16809;SDS011;51744;50.872;4.730;2023-04-03T13:19:41;4.57;;;2.27;;
16809;SDS011;51744;50.872;4.730;2023-04-03T13:22:33;3.63;;;2.17;;
16809;SDS011;51744;50.872;4.730;2023-04-03T13:25:26;3.45;;;2.00;;
16809;SDS011;51744;50.872;4.730;2023-04-03T13:28:17;4.88;;;2.35;;
16809;SDS011;51744;50.872;4.730;2023-04-03T13:31:08;4.20;;;2.20;;
16809;SDS011;51744;50.872;4.730;2023-04-03T13:34:07;3.38;;;2.15;;
16809;SDS011;51744;50.872;4.730;2023-04-03T13:36:58;3.55;;;2.03;;
16809;SDS011;51744;50.872;4.730;2023-04-03T13:39:58;3.92;;;2.17;;
16809;SDS011;51744;50.872;4.730;2023-04-03T13:42:57;3.63;;;2.05;;
16809;SDS011;51744;50.872;4.730;2023-04-03T13:45:54;2.60;;;2.00;;
16809;SDS011;51744;50.872;4.730;2023-04-03T13:48:47;3.15;;;1.90;;
16809;SDS011;51744;50.872;4.730;2023-04-03T13:51:37;2.90;;;2.15;;
16809;SDS011;51744;50.872;4.730;2023-04-03T13:54:29;2.35;;;1.83;;
16809;SDS011;51744;50.872;4.730;2023-04-03T13:57:21;3.63;;;1.93;;
16809;SDS011;51744;50.872;4.730;2023-04-03T14:00:19;2.65;;;1.83;;
16809;SDS011;51744;50.872;4.730;2023-04-03T14:03:12;3.17;;;2.05;;
16809;SDS011;51744;50.872;4.730;2023-04-03T14:06:01;2.83;;;2.00;;
16809;SDS011;51744;50.872;4.730;2023-04-03T14:08:51;4.40;;;2.20;;
16809;SDS011;51744;50.872;4.730;2023-04-03T14:11:39;3.63;;;1.98;;
16809;SDS011;51744;50.872;4.730;2023-04-03T14:14:29;2.70;;;2.00;;
16809;SDS011;51744;50.872;4.730;2023-04-03T14:17:19;3.22;;;1.90;;
16809;SDS011;51744;50.872;4.730;2023-04-03T14:20:13;3.47;;;1.90;;
16809;SDS011;51744;50.872;4.730;2023-04-03T14:23:02;4.22;;;2.00;;
16809;SDS011;51744;50.872;4.730;2023-04-03T14:25:49;3.00;;;2.20;;
16809;SDS011;51744;50.872;4.730;2023-04-03T14:28:36;3.27;;;2.20;;
16809;SDS011;51744;50.872;4.730;2023-04-03T14:31:30;4.03;;;2.30;;
16809;SDS011;51744;50.872;4.730;2023-04-03T14:34:18;4.53;;;2.20;;
16809;SDS011;51744;50.872;4.730;2023-04-03T14:37:05;3.83;;;2.23;;
16809;SDS011;51744;50.872;4.730;2023-04-03T14:39:59;4.10;;;2.30;;
16809;SDS011;51744;50.872;4.730;2023-04-03T14:42:48;3.28;;;1.90;;
16809;SDS011;51744;50.872;4.730;2023-04-03T14:45:36;3.15;;;2.08;;
16809;SDS011;51744;50.872;4.730;2023-04-03T14:48:25;3.17;;;2.30;;
16809;SDS011;51744;50.872;4.730;2023-04-03T14:51:15;4.20;;;2.30;;
16809;SDS011;51744;50.872;4.730;2023-04-03T14:54:03;3.72;;;2.25;;
16809;SDS011;51744;50.872;4.730;2023-04-03T14:56:52;3.30;;;2.13;;
16809;SDS011;51744;50.872;4.730;2023-04-03T14:59:41;4.93;;;2.55;;
16809;SDS011;51744;50.872;4.730;2023-04-03T15:02:30;4.45;;;2.47;;
16809;SDS011;51744;50.872;4.730;2023-04-03T15:05:21;3.65;;;2.33;;
16809;SDS011;51744;50.872;4.730;2023-04-03T15:08:13;3.38;;;2.40;;
16809;SDS011;51744;50.872;4.730;2023-04-03T15:11:06;4.88;;;2.55;;
16809;SDS011;51744;50.872;4.730;2023-04-03T15:13:55;4.35;;;2.60;;
16809;SDS011;51744;50.872;4.730;2023-04-03T15:16:43;3.10;;;2.50;;
16809;SDS011;51744;50.872;4.730;2023-04-03T15:19:31;3.33;;;2.67;;
16809;SDS011;51744;50.872;4.730;2023-04-03T15:22:25;3.73;;;2.50;;
16809;SDS011;51744;50.872;4.730;2023-04-03T15:25:13;4.10;;;2.73;;
16809;SDS011;51744;50.872;4.730;2023-04-03T15:28:00;4.05;;;2.55;;
16809;SDS011;51744;50.872;4.730;2023-04-03T15:30:48;3.78;;;2.55;;
16809;SDS011;51744;50.872;4.730;2023-04-03T15:33:37;6.80;;;2.78;;
16809;SDS011;51744;50.872;4.730;2023-04-03T15:36:24;4.00;;;2.70;;
16809;SDS011;51744;50.872;4.730;2023-04-03T15:39:21;6.10;;;2.60;;
16809;SDS011;51744;50.872;4.730;2023-04-03T15:42:08;3.78;;;2.50;;
16809;SDS011;51744;50.872;4.730;2023-04-03T15:44:57;4.43;;;2.70;;
16809;SDS011;51744;50.872;4.730;2023-04-03T15:47:45;4.18;;;2.90;;
16809;SDS011;51744;50.872;4.730;2023-04-03T15:50:33;4.77;;;2.60;;
16809;SDS011;51744;50.872;4.730;2023-04-03T15:53:22;4.75;;;2.88;;
16809;SDS011;51744;50.872;4.730;2023-04-03T15:56:11;4.20;;;3.00;;
16809;SDS011;51744;50.872;4.730;2023-04-03T15:58:59;5.22;;;2.97;;
16809;SDS011;51744;50.872;4.730;2023-04-03T16:01:46;4.50;;;2.67;;
16809;SDS011;51744;50.872;4.730;2023-04-03T16:04:35;4.25;;;2.83;;
16809;SDS011;51744;50.872;4.730;2023-04-03T16:07:23;4.18;;;3.00;;
16809;SDS011;51744;50.872;4.730;2023-04-03T16:10:13;5.80;;;3.40;;
16809;SDS011;51744;50.872;4.730;2023-04-03T16:13:03;5.03;;;2.90;;
16809;SDS011;51744;50.872;4.730;2023-04-03T16:15:51;4.05;;;2.80;;
16809;SDS011;51744;50.872;4.730;2023-04-03T16:18:39;5.00;;;3.03;;
16809;SDS011;51744;50.872;4.730;2023-04-03T16:21:27;4.53;;;2.80;;
16809;SDS011;51744;50.872;4.730;2023-04-03T16:24:15;3.67;;;2.63;;
16809;SDS011;51744;50.872;4.730;2023-04-03T16:27:04;3.53;;;2.60;;
16809;SDS011;51744;50.872;4.730;2023-04-03T16:29:53;4.55;;;2.60;;
16809;SDS011;51744;50.872;4.730;2023-04-03T16:32:41;4.65;;;2.40;;
16809;SDS011;51744;50.872;4.730;2023-04-03T16:35:29;4.55;;;2.78;;
16809;SDS011;51744;50.872;4.730;2023-04-03T16:38:17;4.97;;;2.90;;
16809;SDS011;51744;50.872;4.730;2023-04-03T16:41:05;3.65;;;2.40;;
16809;SDS011;51744;50.872;4.730;2023-04-03T16:43:52;4.38;;;2.75;;
16809;SDS011;51744;50.872;4.730;2023-04-03T16:46:42;5.28;;;2.67;;
16809;SDS011;51744;50.872;4.730;2023-04-03T16:49:33;4.50;;;2.70;;
16809;SDS011;51744;50.872;4.730;2023-04-03T16:52:21;4.05;;;2.83;;
16809;SDS011;51744;50.872;4.730;2023-04-03T16:55:08;3.15;;;2.45;;
16809;SDS011;51744;50.872;4.730;2023-04-03T16:57:56;5.82;;;3.08;;
16809;SDS011;51744;50.872;4.730;2023-04-03T17:00:43;3.55;;;2.60;;
16809;SDS011;51744;50.872;4.730;2023-04-03T17:03:34;3.53;;;2.20;;
16809;SDS011;51744;50.872;4.730;2023-04-03T17:06:21;4.97;;;2.72;;
16809;SDS011;51744;50.872;4.730;2023-04-03T17:09:10;5.38;;;2.80;;
16809;SDS011;51744;50.872;4.730;2023-04-03T17:11:58;3.80;;;2.40;;
16809;SDS011;51744;50.872;4.730;2023-04-03T17:14:45;3.92;;;2.50;;